sensor_id;sensor_type;location;lat;lon;timestamp;temperature;humidity
4596;DHT22;2310;49.978;8.742;2022-10-16T00:02:03;17.30;99.90
4596;DHT22;2310;49.978;8.742;2022-10-16T00:06:05;17.20;99.90
4596;DHT22;2310;49.978;8.742;2022-10-16T00:10:07;17.40;99.90
4596;DHT22;2310;49.978;8.742;2022-10-16T00:14:11;17.40;99.90
4596;DHT22;2310;49.978;8.742;2022-10-16T00:18:13;17.30;99.90
4596;DHT22;2310;49.978;8.742;2022-10-16T00:22:15;17.40;99.90
4596;DHT22;2310;49.978;8.742;2022-10-16T00:26:17;17.20;99.90
4596;DHT22;2310;49.978;8.742;2022-10-16T00:30:18;17.10;99.90
4596;DHT22;2310;49.978;8.742;2022-10-16T00:34:19;17.10;99.90
4596;DHT22;2310;49.978;8.742;2022-10-16T00:38:21;17.20;99.90
4596;DHT22;2310;49.978;8.742;2022-10-16T00:42:22;17.10;99.90
4596;DHT22;2310;49.978;8.742;2022-10-16T00:46:37;17.20;99.90
4596;DHT22;2310;49.978;8.742;2022-10-16T00:50:38;17.20;99.90
4596;DHT22;2310;49.978;8.742;2022-10-16T00:54:40;17.20;99.90
4596;DHT22;2310;49.978;8.742;2022-10-16T00:58:41;17.30;99.90
4596;DHT22;2310;49.978;8.742;2022-10-16T01:02:43;17.20;99.90
4596;DHT22;2310;49.978;8.742;2022-10-16T01:11:15;17.40;99.90
4596;DHT22;2310;49.978;8.742;2022-10-16T01:15:41;17.30;99.90
4596;DHT22;2310;49.978;8.742;2022-10-16T01:25:03;17.10;99.90
4596;DHT22;2310;49.978;8.742;2022-10-16T01:28:15;17.10;99.90
4596;DHT22;2310;49.978;8.742;2022-10-16T01:32:33;17.10;99.90
4596;DHT22;2310;49.978;8.742;2022-10-16T01:36:42;16.90;99.90
4596;DHT22;2310;49.978;8.742;2022-10-16T01:40:52;17.10;99.90
4596;DHT22;2310;49.978;8.742;2022-10-16T01:44:58;17.00;99.90
4596;DHT22;2310;49.978;8.742;2022-10-16T01:49:02;17.10;99.90
4596;DHT22;2310;49.978;8.742;2022-10-16T01:53:05;17.00;99.90
4596;DHT22;2310;49.978;8.742;2022-10-16T01:57:07;17.10;99.90
4596;DHT22;2310;49.978;8.742;2022-10-16T02:01:11;17.20;99.90
4596;DHT22;2310;49.978;8.742;2022-10-16T02:09:23;17.10;99.90
4596;DHT22;2310;49.978;8.742;2022-10-16T02:13:44;17.00;99.90
4596;DHT22;2310;49.978;8.742;2022-10-16T02:17:46;16.90;99.90
4596;DHT22;2310;49.978;8.742;2022-10-16T02:21:56;16.70;99.90
4596;DHT22;2310;49.978;8.742;2022-10-16T02:25:58;16.70;99.90
4596;DHT22;2310;49.978;8.742;2022-10-16T02:30:13;16.90;99.90
4596;DHT22;2310;49.978;8.742;2022-10-16T02:34:15;16.80;99.90
4596;DHT22;2310;49.978;8.742;2022-10-16T02:38:17;16.80;99.90
4596;DHT22;2310;49.978;8.742;2022-10-16T02:42:19;17.00;99.90
4596;DHT22;2310;49.978;8.742;2022-10-16T02:46:20;17.10;99.90
4596;DHT22;2310;49.978;8.742;2022-10-16T02:50:22;17.20;99.90
4596;DHT22;2310;49.978;8.742;2022-10-16T02:54:23;17.30;99.90
4596;DHT22;2310;49.978;8.742;2022-10-16T02:58:25;17.20;99.90
4596;DHT22;2310;49.978;8.742;2022-10-16T03:02:26;17.30;99.90
4596;DHT22;2310;49.978;8.742;2022-10-16T03:06:27;17.40;99.90
4596;DHT22;2310;49.978;8.742;2022-10-16T03:10:28;17.40;99.90
4596;DHT22;2310;49.978;8.742;2022-10-16T03:14:29;17.30;99.90
4596;DHT22;2310;49.978;8.742;2022-10-16T03:18:30;17.40;99.90
4596;DHT22;2310;49.978;8.742;2022-10-16T03:22:32;17.60;99.90
4596;DHT22;2310;49.978;8.742;2022-10-16T03:26:33;17.70;99.90
4596;DHT22;2310;49.978;8.742;2022-10-16T03:30:34;17.40;99.90
4596;DHT22;2310;49.978;8.742;2022-10-16T03:34:35;17.30;99.90
4596;DHT22;2310;49.978;8.742;2022-10-16T03:38:36;17.40;99.90
4596;DHT22;2310;49.978;8.742;2022-10-16T03:42:38;17.50;99.90
4596;DHT22;2310;49.978;8.742;2022-10-16T03:46:39;17.30;99.90
4596;DHT22;2310;49.978;8.742;2022-10-16T03:50:40;17.30;99.90
4596;DHT22;2310;49.978;8.742;2022-10-16T03:54:41;17.30;99.90
4596;DHT22;2310;49.978;8.742;2022-10-16T03:58:43;17.20;99.90
4596;DHT22;2310;49.978;8.742;2022-10-16T04:02:44;17.20;99.90
4596;DHT22;2310;49.978;8.742;2022-10-16T04:06:47;17.30;99.90
4596;DHT22;2310;49.978;8.742;2022-10-16T04:10:48;17.40;99.90
4596;DHT22;2310;49.978;8.742;2022-10-16T04:14:50;17.50;99.90
4596;DHT22;2310;49.978;8.742;2022-10-16T04:18:51;17.40;99.90
4596;DHT22;2310;49.978;8.742;2022-10-16T04:22:52;17.60;99.90
4596;DHT22;2310;49.978;8.742;2022-10-16T04:26:53;17.60;99.90
4596;DHT22;2310;49.978;8.742;2022-10-16T04:30:54;17.60;99.90
4596;DHT22;2310;49.978;8.742;2022-10-16T04:34:55;17.50;99.90
4596;DHT22;2310;49.978;8.742;2022-10-16T04:38:57;17.60;99.90
4596;DHT22;2310;49.978;8.742;2022-10-16T04:42:59;17.70;99.90
4596;DHT22;2310;49.978;8.742;2022-10-16T04:47:00;17.60;99.90
4596;DHT22;2310;49.978;8.742;2022-10-16T04:51:02;17.70;99.90
4596;DHT22;2310;49.978;8.742;2022-10-16T04:55:03;17.80;99.90
4596;DHT22;2310;49.978;8.742;2022-10-16T04:59:05;17.80;99.90
4596;DHT22;2310;49.978;8.742;2022-10-16T05:03:07;17.80;99.90
4596;DHT22;2310;49.978;8.742;2022-10-16T05:07:09;17.80;99.90
4596;DHT22;2310;49.978;8.742;2022-10-16T05:11:11;17.70;99.90
4596;DHT22;2310;49.978;8.742;2022-10-16T05:15:12;17.70;99.90
4596;DHT22;2310;49.978;8.742;2022-10-16T05:19:13;17.80;99.90
4596;DHT22;2310;49.978;8.742;2022-10-16T05:23:16;18.00;99.90
4596;DHT22;2310;49.978;8.742;2022-10-16T05:27:17;18.10;99.90
4596;DHT22;2310;49.978;8.742;2022-10-16T05:31:21;18.10;99.90
4596;DHT22;2310;49.978;8.742;2022-10-16T05:35:23;18.10;99.90
4596;DHT22;2310;49.978;8.742;2022-10-16T05:39:24;18.10;99.90
4596;DHT22;2310;49.978;8.742;2022-10-16T05:43:27;18.20;99.90
4596;DHT22;2310;49.978;8.742;2022-10-16T05:47:28;18.20;99.90
4596;DHT22;2310;49.978;8.742;2022-10-16T05:51:30;18.10;99.90
4596;DHT22;2310;49.978;8.742;2022-10-16T05:55:31;17.90;99.90
4596;DHT22;2310;49.978;8.742;2022-10-16T05:59:32;17.60;99.90
4596;DHT22;2310;49.978;8.742;2022-10-16T06:03:34;17.80;99.90
4596;DHT22;2310;49.978;8.742;2022-10-16T06:07:36;17.90;99.90
4596;DHT22;2310;49.978;8.742;2022-10-16T06:11:37;17.90;99.90
4596;DHT22;2310;49.978;8.742;2022-10-16T06:15:39;17.90;99.90
4596;DHT22;2310;49.978;8.742;2022-10-16T06:19:42;17.90;99.90
4596;DHT22;2310;49.978;8.742;2022-10-16T06:23:44;18.00;99.90
4596;DHT22;2310;49.978;8.742;2022-10-16T06:27:46;18.00;99.90
4596;DHT22;2310;49.978;8.742;2022-10-16T06:31:47;18.10;99.90
4596;DHT22;2310;49.978;8.742;2022-10-16T06:35:49;18.10;99.90
4596;DHT22;2310;49.978;8.742;2022-10-16T06:39:50;18.20;99.90
4596;DHT22;2310;49.978;8.742;2022-10-16T06:43:55;18.30;99.90
4596;DHT22;2310;49.978;8.742;2022-10-16T06:47:56;18.30;99.90
4596;DHT22;2310;49.978;8.742;2022-10-16T06:52:03;18.30;99.90
4596;DHT22;2310;49.978;8.742;2022-10-16T06:56:14;18.20;99.90
4596;DHT22;2310;49.978;8.742;2022-10-16T07:00:15;18.30;99.90
4596;DHT22;2310;49.978;8.742;2022-10-16T07:04:17;18.20;99.90
4596;DHT22;2310;49.978;8.742;2022-10-16T07:08:18;18.30;99.90
4596;DHT22;2310;49.978;8.742;2022-10-16T07:12:19;18.40;99.90
4596;DHT22;2310;49.978;8.742;2022-10-16T07:16:23;18.50;99.90
4596;DHT22;2310;49.978;8.742;2022-10-16T07:20:25;18.60;99.90
4596;DHT22;2310;49.978;8.742;2022-10-16T07:24:26;18.60;99.90
4596;DHT22;2310;49.978;8.742;2022-10-16T07:28:28;18.70;99.90
4596;DHT22;2310;49.978;8.742;2022-10-16T07:32:29;18.50;99.90
4596;DHT22;2310;49.978;8.742;2022-10-16T07:36:30;18.40;99.90
4596;DHT22;2310;49.978;8.742;2022-10-16T07:40:32;18.40;99.90
4596;DHT22;2310;49.978;8.742;2022-10-16T07:44:33;18.60;99.90
4596;DHT22;2310;49.978;8.742;2022-10-16T07:48:34;18.60;99.90
4596;DHT22;2310;49.978;8.742;2022-10-16T07:52:36;18.80;99.90
4596;DHT22;2310;49.978;8.742;2022-10-16T07:56:37;18.90;99.90
4596;DHT22;2310;49.978;8.742;2022-10-16T08:00:40;19.00;99.90
4596;DHT22;2310;49.978;8.742;2022-10-16T08:04:41;18.70;99.90
4596;DHT22;2310;49.978;8.742;2022-10-16T08:08:43;19.00;99.90
4596;DHT22;2310;49.978;8.742;2022-10-16T08:12:44;18.70;99.90
4596;DHT22;2310;49.978;8.742;2022-10-16T08:16:45;18.80;99.90
4596;DHT22;2310;49.978;8.742;2022-10-16T08:20:46;19.00;99.90
4596;DHT22;2310;49.978;8.742;2022-10-16T08:24:48;19.00;99.90
4596;DHT22;2310;49.978;8.742;2022-10-16T08:28:50;19.00;99.90
4596;DHT22;2310;49.978;8.742;2022-10-16T08:32:53;19.10;99.90
4596;DHT22;2310;49.978;8.742;2022-10-16T08:36:54;19.00;99.90
4596;DHT22;2310;49.978;8.742;2022-10-16T08:49:12;19.00;99.90
4596;DHT22;2310;49.978;8.742;2022-10-16T08:53:19;18.90;99.90
4596;DHT22;2310;49.978;8.742;2022-10-16T08:57:21;18.80;99.90
4596;DHT22;2310;49.978;8.742;2022-10-16T09:01:35;18.80;99.90
4596;DHT22;2310;49.978;8.742;2022-10-16T09:06:08;18.70;99.90
4596;DHT22;2310;49.978;8.742;2022-10-16T09:10:29;18.60;99.90
4596;DHT22;2310;49.978;8.742;2022-10-16T09:23:18;18.50;99.90
4596;DHT22;2310;49.978;8.742;2022-10-16T09:27:16;18.50;99.90
4596;DHT22;2310;49.978;8.742;2022-10-16T09:31:19;18.70;99.90
4596;DHT22;2310;49.978;8.742;2022-10-16T09:39:50;19.00;99.90
4596;DHT22;2310;49.978;8.742;2022-10-16T09:44:00;18.80;99.90
4596;DHT22;2310;49.978;8.742;2022-10-16T09:48:11;19.10;99.90
4596;DHT22;2310;49.978;8.742;2022-10-16T09:52:14;19.30;99.90
4596;DHT22;2310;49.978;8.742;2022-10-16T09:56:28;19.60;99.90
4596;DHT22;2310;49.978;8.742;2022-10-16T10:00:26;19.90;99.90
4596;DHT22;2310;49.978;8.742;2022-10-16T10:04:37;20.50;99.90
4596;DHT22;2310;49.978;8.742;2022-10-16T10:08:33;20.80;99.90
4596;DHT22;2310;49.978;8.742;2022-10-16T10:12:34;21.20;99.90
4596;DHT22;2310;49.978;8.742;2022-10-16T10:16:38;21.40;99.90
4596;DHT22;2310;49.978;8.742;2022-10-16T10:20:39;21.50;99.90
4596;DHT22;2310;49.978;8.742;2022-10-16T10:24:41;21.30;99.90
4596;DHT22;2310;49.978;8.742;2022-10-16T10:28:46;21.70;99.90
4596;DHT22;2310;49.978;8.742;2022-10-16T11:02:26;22.40;99.90
4596;DHT22;2310;49.978;8.742;2022-10-16T11:06:32;22.70;99.90
4596;DHT22;2310;49.978;8.742;2022-10-16T11:15:32;23.70;99.90
4596;DHT22;2310;49.978;8.742;2022-10-16T11:19:44;23.90;99.90
4596;DHT22;2310;49.978;8.742;2022-10-16T11:23:54;23.60;99.90
4596;DHT22;2310;49.978;8.742;2022-10-16T11:28:20;23.60;99.90
4596;DHT22;2310;49.978;8.742;2022-10-16T11:32:29;23.20;99.90
4596;DHT22;2310;49.978;8.742;2022-10-16T11:36:40;22.80;99.90
4596;DHT22;2310;49.978;8.742;2022-10-16T11:40:43;22.50;99.90
4596;DHT22;2310;49.978;8.742;2022-10-16T11:45:15;22.40;99.90
4596;DHT22;2310;49.978;8.742;2022-10-16T11:49:20;22.90;99.90
4596;DHT22;2310;49.978;8.742;2022-10-16T11:57:45;23.00;99.90
4596;DHT22;2310;49.978;8.742;2022-10-16T12:01:57;23.40;99.90
4596;DHT22;2310;49.978;8.742;2022-10-16T12:10:29;23.10;99.90
4596;DHT22;2310;49.978;8.742;2022-10-16T12:14:36;23.30;99.90
4596;DHT22;2310;49.978;8.742;2022-10-16T12:18:41;23.30;99.90
4596;DHT22;2310;49.978;8.742;2022-10-16T12:22:52;22.90;99.90
4596;DHT22;2310;49.978;8.742;2022-10-16T12:26:55;23.20;99.90
4596;DHT22;2310;49.978;8.742;2022-10-16T12:31:00;23.10;99.90
4596;DHT22;2310;49.978;8.742;2022-10-16T12:35:03;22.70;99.90
4596;DHT22;2310;49.978;8.742;2022-10-16T12:39:05;23.10;99.90
4596;DHT22;2310;49.978;8.742;2022-10-16T12:44:00;23.30;99.90
4596;DHT22;2310;49.978;8.742;2022-10-16T12:51:36;23.60;99.90
4596;DHT22;2310;49.978;8.742;2022-10-16T13:00:25;23.30;99.90
4596;DHT22;2310;49.978;8.742;2022-10-16T13:17:29;22.80;99.90
4596;DHT22;2310;49.978;8.742;2022-10-16T13:21:53;23.00;99.90
4596;DHT22;2310;49.978;8.742;2022-10-16T13:30:26;22.80;99.90
4596;DHT22;2310;49.978;8.742;2022-10-16T13:34:30;23.00;99.90
4596;DHT22;2310;49.978;8.742;2022-10-16T13:38:34;23.10;99.90
4596;DHT22;2310;49.978;8.742;2022-10-16T13:42:35;23.10;99.90
4596;DHT22;2310;49.978;8.742;2022-10-16T13:46:37;23.20;99.90
4596;DHT22;2310;49.978;8.742;2022-10-16T13:50:38;23.20;99.90
4596;DHT22;2310;49.978;8.742;2022-10-16T13:54:39;23.10;99.90
4596;DHT22;2310;49.978;8.742;2022-10-16T13:58:42;22.90;99.90
4596;DHT22;2310;49.978;8.742;2022-10-16T14:02:44;23.10;99.90
4596;DHT22;2310;49.978;8.742;2022-10-16T14:06:49;23.00;99.90
4596;DHT22;2310;49.978;8.742;2022-10-16T14:10:59;22.90;99.90
4596;DHT22;2310;49.978;8.742;2022-10-16T14:15:01;22.60;99.90
4596;DHT22;2310;49.978;8.742;2022-10-16T14:19:04;22.30;99.90
4596;DHT22;2310;49.978;8.742;2022-10-16T14:27:33;22.00;99.90
4596;DHT22;2310;49.978;8.742;2022-10-16T14:31:34;22.00;99.90
4596;DHT22;2310;49.978;8.742;2022-10-16T14:35:39;22.00;99.90
4596;DHT22;2310;49.978;8.742;2022-10-16T14:39:41;22.20;99.90
4596;DHT22;2310;49.978;8.742;2022-10-16T14:43:43;22.30;99.90
4596;DHT22;2310;49.978;8.742;2022-10-16T14:47:49;22.40;99.90
4596;DHT22;2310;49.978;8.742;2022-10-16T14:51:51;22.40;99.90
4596;DHT22;2310;49.978;8.742;2022-10-16T14:55:53;22.40;99.90
4596;DHT22;2310;49.978;8.742;2022-10-16T14:59:54;22.40;99.90
4596;DHT22;2310;49.978;8.742;2022-10-16T15:03:55;22.40;99.90
4596;DHT22;2310;49.978;8.742;2022-10-16T15:07:57;22.40;99.90
4596;DHT22;2310;49.978;8.742;2022-10-16T15:11:58;22.40;99.90
4596;DHT22;2310;49.978;8.742;2022-10-16T15:15:59;22.20;99.90
4596;DHT22;2310;49.978;8.742;2022-10-16T15:20:00;22.10;99.90
4596;DHT22;2310;49.978;8.742;2022-10-16T15:24:01;22.10;99.90
4596;DHT22;2310;49.978;8.742;2022-10-16T15:28:04;22.20;99.90
4596;DHT22;2310;49.978;8.742;2022-10-16T15:32:05;22.10;99.90
4596;DHT22;2310;49.978;8.742;2022-10-16T15:36:06;22.10;99.90
4596;DHT22;2310;49.978;8.742;2022-10-16T15:40:09;22.10;99.90
4596;DHT22;2310;49.978;8.742;2022-10-16T15:44:10;22.20;99.90
4596;DHT22;2310;49.978;8.742;2022-10-16T15:48:12;22.20;99.90
4596;DHT22;2310;49.978;8.742;2022-10-16T15:52:16;22.10;99.90
4596;DHT22;2310;49.978;8.742;2022-10-16T15:56:17;22.10;99.90
4596;DHT22;2310;49.978;8.742;2022-10-16T16:00:19;22.00;99.90
4596;DHT22;2310;49.978;8.742;2022-10-16T16:04:25;22.00;99.90
4596;DHT22;2310;49.978;8.742;2022-10-16T16:08:28;21.90;99.90
4596;DHT22;2310;49.978;8.742;2022-10-16T16:12:29;21.90;99.90
4596;DHT22;2310;49.978;8.742;2022-10-16T16:16:31;21.90;99.90
4596;DHT22;2310;49.978;8.742;2022-10-16T16:20:34;21.80;99.90
4596;DHT22;2310;49.978;8.742;2022-10-16T16:24:35;21.60;99.90
4596;DHT22;2310;49.978;8.742;2022-10-16T16:28:36;21.60;99.90
4596;DHT22;2310;49.978;8.742;2022-10-16T16:32:38;21.50;99.90
4596;DHT22;2310;49.978;8.742;2022-10-16T16:36:39;21.40;99.90
4596;DHT22;2310;49.978;8.742;2022-10-16T16:40:40;21.30;99.90
4596;DHT22;2310;49.978;8.742;2022-10-16T16:44:42;21.20;99.90
4596;DHT22;2310;49.978;8.742;2022-10-16T16:48:44;21.20;99.90
4596;DHT22;2310;49.978;8.742;2022-10-16T16:52:45;21.00;99.90
4596;DHT22;2310;49.978;8.742;2022-10-16T16:56:46;20.70;99.90
4596;DHT22;2310;49.978;8.742;2022-10-16T17:00:47;20.60;99.90
4596;DHT22;2310;49.978;8.742;2022-10-16T17:04:50;20.60;99.90
4596;DHT22;2310;49.978;8.742;2022-10-16T17:08:52;20.50;99.90
4596;DHT22;2310;49.978;8.742;2022-10-16T17:12:53;20.40;99.90
4596;DHT22;2310;49.978;8.742;2022-10-16T17:16:54;20.50;99.90
4596;DHT22;2310;49.978;8.742;2022-10-16T17:21:06;20.30;99.90
4596;DHT22;2310;49.978;8.742;2022-10-16T17:25:05;20.20;99.90
4596;DHT22;2310;49.978;8.742;2022-10-16T17:29:10;20.20;99.90
4596;DHT22;2310;49.978;8.742;2022-10-16T17:33:12;20.30;99.90
4596;DHT22;2310;49.978;8.742;2022-10-16T17:37:14;20.30;99.90
4596;DHT22;2310;49.978;8.742;2022-10-16T17:41:19;20.30;99.90
4596;DHT22;2310;49.978;8.742;2022-10-16T17:45:21;20.30;99.90
4596;DHT22;2310;49.978;8.742;2022-10-16T17:49:22;20.30;99.90
4596;DHT22;2310;49.978;8.742;2022-10-16T17:53:25;20.30;99.90
4596;DHT22;2310;49.978;8.742;2022-10-16T17:57:26;20.30;99.90
4596;DHT22;2310;49.978;8.742;2022-10-16T18:01:34;20.20;99.90
4596;DHT22;2310;49.978;8.742;2022-10-16T18:05:36;20.20;99.90
4596;DHT22;2310;49.978;8.742;2022-10-16T18:09:38;20.10;99.90
4596;DHT22;2310;49.978;8.742;2022-10-16T18:13:41;20.10;99.90
4596;DHT22;2310;49.978;8.742;2022-10-16T18:17:42;20.10;99.90
4596;DHT22;2310;49.978;8.742;2022-10-16T18:21:43;20.00;99.90
4596;DHT22;2310;49.978;8.742;2022-10-16T18:25:49;19.90;99.90
4596;DHT22;2310;49.978;8.742;2022-10-16T18:29:50;19.90;99.90
4596;DHT22;2310;49.978;8.742;2022-10-16T18:33:54;19.80;99.90
4596;DHT22;2310;49.978;8.742;2022-10-16T18:37:55;19.80;99.90
4596;DHT22;2310;49.978;8.742;2022-10-16T18:41:59;19.70;99.90
4596;DHT22;2310;49.978;8.742;2022-10-16T18:46:03;19.70;99.90
4596;DHT22;2310;49.978;8.742;2022-10-16T18:50:05;19.60;99.90
4596;DHT22;2310;49.978;8.742;2022-10-16T18:54:11;19.40;99.90
4596;DHT22;2310;49.978;8.742;2022-10-16T18:58:12;19.30;99.90
4596;DHT22;2310;49.978;8.742;2022-10-16T19:02:14;19.30;99.90
4596;DHT22;2310;49.978;8.742;2022-10-16T19:06:15;19.10;99.90
4596;DHT22;2310;49.978;8.742;2022-10-16T19:10:17;19.00;99.90
4596;DHT22;2310;49.978;8.742;2022-10-16T19:14:18;18.90;99.90
4596;DHT22;2310;49.978;8.742;2022-10-16T19:18:21;19.00;99.90
4596;DHT22;2310;49.978;8.742;2022-10-16T19:22:24;18.90;99.90
4596;DHT22;2310;49.978;8.742;2022-10-16T19:26:31;18.90;99.90
4596;DHT22;2310;49.978;8.742;2022-10-16T19:30:39;18.80;99.90
4596;DHT22;2310;49.978;8.742;2022-10-16T19:34:42;18.90;99.90
4596;DHT22;2310;49.978;8.742;2022-10-16T19:38:46;18.90;99.90
4596;DHT22;2310;49.978;8.742;2022-10-16T19:42:47;18.80;99.90
4596;DHT22;2310;49.978;8.742;2022-10-16T19:46:48;18.80;99.90
4596;DHT22;2310;49.978;8.742;2022-10-16T19:50:49;18.70;99.90
4596;DHT22;2310;49.978;8.742;2022-10-16T19:54:56;18.60;99.90
4596;DHT22;2310;49.978;8.742;2022-10-16T19:58:58;18.60;99.90
4596;DHT22;2310;49.978;8.742;2022-10-16T20:03:00;18.70;99.90
4596;DHT22;2310;49.978;8.742;2022-10-16T20:07:03;18.60;99.90
4596;DHT22;2310;49.978;8.742;2022-10-16T20:11:06;18.60;99.90
4596;DHT22;2310;49.978;8.742;2022-10-16T20:15:09;18.60;99.90
4596;DHT22;2310;49.978;8.742;2022-10-16T20:19:10;18.60;99.90
4596;DHT22;2310;49.978;8.742;2022-10-16T20:23:11;18.60;99.90
4596;DHT22;2310;49.978;8.742;2022-10-16T20:27:12;18.70;99.90
4596;DHT22;2310;49.978;8.742;2022-10-16T20:31:16;18.60;99.90
4596;DHT22;2310;49.978;8.742;2022-10-16T20:35:20;18.50;99.90
4596;DHT22;2310;49.978;8.742;2022-10-16T20:39:21;18.40;99.90
4596;DHT22;2310;49.978;8.742;2022-10-16T20:43:22;18.40;99.90
4596;DHT22;2310;49.978;8.742;2022-10-16T20:47:24;18.30;99.90
4596;DHT22;2310;49.978;8.742;2022-10-16T20:51:28;18.30;99.90
4596;DHT22;2310;49.978;8.742;2022-10-16T20:55:29;18.20;99.90
4596;DHT22;2310;49.978;8.742;2022-10-16T20:59:31;18.10;99.90
4596;DHT22;2310;49.978;8.742;2022-10-16T21:03:32;18.10;99.90
4596;DHT22;2310;49.978;8.742;2022-10-16T21:07:33;18.10;99.90
4596;DHT22;2310;49.978;8.742;2022-10-16T21:11:36;18.00;99.90
4596;DHT22;2310;49.978;8.742;2022-10-16T21:15:37;18.10;99.90
4596;DHT22;2310;49.978;8.742;2022-10-16T21:19:38;18.10;99.90
4596;DHT22;2310;49.978;8.742;2022-10-16T21:23:39;17.90;99.90
4596;DHT22;2310;49.978;8.742;2022-10-16T21:27:41;17.90;99.90
4596;DHT22;2310;49.978;8.742;2022-10-16T21:31:42;17.90;99.90
4596;DHT22;2310;49.978;8.742;2022-10-16T21:35:44;17.90;99.90
4596;DHT22;2310;49.978;8.742;2022-10-16T21:39:45;18.00;99.90
4596;DHT22;2310;49.978;8.742;2022-10-16T21:43:46;18.00;99.90
4596;DHT22;2310;49.978;8.742;2022-10-16T21:47:47;17.90;99.90
4596;DHT22;2310;49.978;8.742;2022-10-16T21:51:49;17.80;99.90
4596;DHT22;2310;49.978;8.742;2022-10-16T21:55:51;17.80;99.90
4596;DHT22;2310;49.978;8.742;2022-10-16T21:59:52;17.80;99.90
4596;DHT22;2310;49.978;8.742;2022-10-16T22:03:53;17.60;99.90
4596;DHT22;2310;49.978;8.742;2022-10-16T22:07:55;17.60;99.90
4596;DHT22;2310;49.978;8.742;2022-10-16T22:11:56;17.50;99.90
4596;DHT22;2310;49.978;8.742;2022-10-16T22:15:58;17.40;99.90
4596;DHT22;2310;49.978;8.742;2022-10-16T22:19:59;17.40;99.90
4596;DHT22;2310;49.978;8.742;2022-10-16T22:24:00;17.40;99.90
4596;DHT22;2310;49.978;8.742;2022-10-16T22:28:02;17.20;99.90
4596;DHT22;2310;49.978;8.742;2022-10-16T22:32:04;17.20;99.90
4596;DHT22;2310;49.978;8.742;2022-10-16T22:36:07;17.20;99.90
4596;DHT22;2310;49.978;8.742;2022-10-16T22:40:11;17.10;99.90
4596;DHT22;2310;49.978;8.742;2022-10-16T22:44:12;17.10;99.90
4596;DHT22;2310;49.978;8.742;2022-10-16T22:48:13;17.10;99.90
4596;DHT22;2310;49.978;8.742;2022-10-16T22:52:14;17.10;99.90
4596;DHT22;2310;49.978;8.742;2022-10-16T22:56:17;16.90;99.90
4596;DHT22;2310;49.978;8.742;2022-10-16T23:00:19;17.00;99.90
4596;DHT22;2310;49.978;8.742;2022-10-16T23:04:20;16.90;99.90
4596;DHT22;2310;49.978;8.742;2022-10-16T23:08:22;16.80;99.90
4596;DHT22;2310;49.978;8.742;2022-10-16T23:12:23;16.80;99.90
4596;DHT22;2310;49.978;8.742;2022-10-16T23:16:26;16.70;99.90
4596;DHT22;2310;49.978;8.742;2022-10-16T23:20:27;16.70;99.90
4596;DHT22;2310;49.978;8.742;2022-10-16T23:24:29;16.60;99.90
4596;DHT22;2310;49.978;8.742;2022-10-16T23:28:31;16.60;99.90
4596;DHT22;2310;49.978;8.742;2022-10-16T23:32:33;16.50;99.90
4596;DHT22;2310;49.978;8.742;2022-10-16T23:36:34;16.50;99.90
4596;DHT22;2310;49.978;8.742;2022-10-16T23:40:35;16.50;99.90
4596;DHT22;2310;49.978;8.742;2022-10-16T23:44:36;16.50;99.90
4596;DHT22;2310;49.978;8.742;2022-10-16T23:48:38;16.50;99.90
4596;DHT22;2310;49.978;8.742;2022-10-16T23:52:40;16.50;99.90
4596;DHT22;2310;49.978;8.742;2022-10-16T23:56:41;16.50;99.90
